createdAt,value
2022-10-20T00:00:30.359Z,102698.75
2022-10-20T00:03:34.665Z,102701.44
2022-10-20T00:06:37.459Z,102704.09
2022-10-20T00:09:40.360Z,102701.44
2022-10-20T00:12:43.154Z,102701.44
2022-10-20T00:15:49.875Z,102702.31
2022-10-20T00:18:54.797Z,102695.22
2022-10-20T00:21:57.762Z,102685.47
2022-10-20T00:25:00.575Z,102690.78
2022-10-20T00:28:03.482Z,102681.91
2022-10-20T00:31:07.163Z,102685.47
2022-10-20T00:34:11.958Z,102682.81
2022-10-20T00:37:14.777Z,102676.63
2022-10-20T00:40:17.804Z,102673.06
2022-10-20T00:43:22.503Z,102668.63
2022-10-20T00:46:28.019Z,102664.19
2022-10-20T00:49:32.203Z,102661.53
2022-10-20T00:52:36.017Z,102669.53
2022-10-20T00:55:43.539Z,102665.09
2022-10-20T00:58:47.215Z,102671.28
2022-10-20T01:01:50.946Z,102672.19
2022-10-20T01:04:55.281Z,102664.19
2022-10-20T01:07:58.087Z,102665.09
2022-10-20T01:11:12.805Z,102665.09
2022-10-20T01:14:36.021Z,102658.88
2022-10-20T01:17:50.316Z,102651.81
2022-10-20T01:21:30.643Z,102649.16
2022-10-20T01:25:02.549Z,102655.34
2022-10-20T01:28:11.898Z,102650.03
2022-10-20T01:31:23.871Z,102653.59
2022-10-20T01:34:32.688Z,102650.91
2022-10-20T01:37:48.895Z,102650.91
2022-10-20T01:40:58.087Z,102650.91
2022-10-20T01:44:04.487Z,102649.16
2022-10-20T01:47:09.624Z,102659.78
2022-10-20T01:50:15.522Z,102645.59
2022-10-20T01:53:18.406Z,102647.38
2022-10-20T01:56:27.976Z,102644.72
2022-10-20T01:59:48.707Z,102632.31
2022-10-20T02:03:26.929Z,102635.88
2022-10-20T02:06:37.765Z,102619.91
2022-10-20T02:09:45.134Z,102619.91
2022-10-20T02:12:53.270Z,102609.25
2022-10-20T02:16:00.315Z,102595.09
2022-10-20T02:19:04.330Z,102592.41
2022-10-20T02:22:09.301Z,102579.13
2022-10-20T02:25:12.733Z,102582.63
2022-10-20T02:28:16.837Z,102587.97
2022-10-20T02:31:21.953Z,102590.63
2022-10-20T02:34:26.882Z,102572.00
2022-10-20T02:37:29.654Z,102576.47
2022-10-20T02:40:32.437Z,102581.78
2022-10-20T02:43:35.240Z,102581.78
2022-10-20T02:46:39.401Z,102570.25
2022-10-20T02:49:42.225Z,102571.16
2022-10-20T02:52:45.026Z,102573.81
2022-10-20T02:55:47.838Z,102573.81
2022-10-20T02:58:50.877Z,102568.47
2022-10-20T03:01:55.108Z,102566.75
2022-10-20T03:04:57.977Z,102559.66
2022-10-20T03:08:00.743Z,102560.50
2022-10-20T03:11:04.023Z,102568.47
2022-10-20T03:14:06.803Z,102572.03
2022-10-20T03:17:11.070Z,102563.16
2022-10-20T03:20:13.860Z,102560.50
2022-10-20T03:23:19.288Z,102565.81
2022-10-20T03:26:23.113Z,102568.47
2022-10-20T03:29:26.005Z,102557.88
2022-10-20T03:32:30.182Z,102555.22
2022-10-20T03:35:33.007Z,102548.13
2022-10-20T03:38:35.793Z,102549.00
2022-10-20T03:41:38.997Z,102541.91
2022-10-20T03:44:41.792Z,102540.13
2022-10-20T03:47:45.959Z,102533.03
2022-10-20T03:50:48.778Z,102533.03
2022-10-20T03:53:51.646Z,102528.59
2022-10-20T03:56:54.472Z,102532.16
2022-10-20T03:59:57.322Z,102530.38
2022-10-20T04:03:01.514Z,102525.06
2022-10-20T04:06:04.475Z,102512.66
2022-10-20T04:09:07.609Z,102521.50
2022-10-20T04:12:10.455Z,102526.84
2022-10-20T04:15:13.382Z,102520.66
2022-10-20T04:18:17.613Z,102525.97
2022-10-20T04:21:20.509Z,102529.53
2022-10-20T04:24:23.394Z,102525.97
2022-10-20T04:27:26.404Z,102525.09
2022-10-20T04:30:29.240Z,102528.63
2022-10-20T04:33:33.510Z,102529.53
2022-10-20T04:36:36.856Z,102531.31
2022-10-20T04:39:40.046Z,102529.53
2022-10-20T04:42:42.837Z,102525.06
2022-10-20T04:45:45.644Z,102508.25
2022-10-20T04:48:49.835Z,102510.91
2022-10-20T04:51:53.949Z,102516.22
2022-10-20T04:54:59.173Z,102505.56
2022-10-20T04:58:02.076Z,102506.47
2022-10-20T05:01:06.606Z,102500.25
2022-10-20T05:04:12.050Z,102498.50
2022-10-20T05:07:14.881Z,102495.84
2022-10-20T05:10:19.296Z,102483.44
2022-10-20T05:13:22.076Z,102479.88
2022-10-20T05:16:25.389Z,102484.31
2022-10-20T05:19:29.639Z,102478.13
2022-10-20T05:22:32.418Z,102479.88
2022-10-20T05:25:37.660Z,102480.75
2022-10-20T05:28:41.291Z,102473.63
2022-10-20T05:31:45.075Z,102463.03
2022-10-20T05:34:49.438Z,102461.25
2022-10-20T05:37:52.298Z,102458.59
2022-10-20T05:40:55.143Z,102465.66
2022-10-20T05:44:00.142Z,102462.09
2022-10-20T05:47:03.047Z,102468.31
2022-10-20T05:50:08.546Z,102463.91
2022-10-20T05:53:11.313Z,102474.56
2022-10-20T05:56:15.908Z,102485.22
2022-10-20T05:59:19.241Z,102479.00
2022-10-20T06:02:22.336Z,102480.78
2022-10-20T06:05:26.635Z,102486.09
2022-10-20T06:08:31.919Z,102493.19
2022-10-20T06:11:39.213Z,102490.56
2022-10-20T06:14:43.629Z,102489.69
2022-10-20T06:17:48.165Z,102492.38
2022-10-20T06:21:00.210Z,102494.19
2022-10-20T06:24:05.240Z,102489.81
2022-10-20T06:27:08.906Z,102500.44
2022-10-20T06:30:12.736Z,102496.03
2022-10-20T06:33:16.926Z,102483.56
2022-10-20T06:36:22.348Z,102486.19
2022-10-20T06:39:25.976Z,102488.75
2022-10-20T06:42:29.360Z,102495.78
2022-10-20T06:45:32.275Z,102485.09
2022-10-20T06:48:36.361Z,102488.59
2022-10-20T06:51:40.826Z,102485.00
2022-10-20T06:54:43.774Z,102483.19
2022-10-20T06:57:46.585Z,102492.09
2022-10-20T07:00:49.445Z,102504.47
2022-10-20T07:03:54.176Z,102500.03
2022-10-20T07:06:58.513Z,102500.03
2022-10-20T07:10:01.323Z,102490.28
2022-10-20T07:13:04.193Z,102495.59
2022-10-20T07:16:08.694Z,102492.06
2022-10-20T07:19:11.610Z,102500.94
2022-10-20T07:22:16.384Z,102502.69
2022-10-20T07:25:21.586Z,102500.88
2022-10-20T07:28:24.471Z,102499.13
2022-10-20T07:31:29.190Z,102498.22
2022-10-20T07:34:32.088Z,102493.78
2022-10-20T07:37:36.713Z,102490.19
2022-10-20T07:40:40.205Z,102484.00
2022-10-20T07:43:43.172Z,102486.66
2022-10-20T07:46:46.302Z,102491.97
2022-10-20T07:49:49.114Z,102491.97
2022-10-20T07:52:54.053Z,102484.00
2022-10-20T07:55:57.194Z,102477.78
2022-10-20T07:59:01.014Z,102483.94
2022-10-20T08:02:04.030Z,102477.78
2022-10-20T08:05:07.491Z,102471.56
2022-10-20T08:08:11.685Z,102461.81
2022-10-20T08:11:15.147Z,102458.28
2022-10-20T08:14:18.002Z,102452.97
2022-10-20T08:17:20.829Z,102444.97
2022-10-20T08:20:32.502Z,102443.19
2022-10-20T08:23:39.413Z,102443.16
2022-10-20T08:26:42.469Z,102443.16
2022-10-20T08:29:50.966Z,102442.25
2022-10-20T08:33:03.728Z,102433.38
2022-10-20T08:36:09.038Z,102419.13
2022-10-20T08:39:13.273Z,102419.97
2022-10-20T08:42:16.359Z,102419.06
2022-10-20T08:45:21.117Z,102420.81
2022-10-20T08:48:27.913Z,102417.25
2022-10-20T08:51:34.189Z,102418.13
2022-10-20T08:54:38.460Z,102413.66
2022-10-20T08:57:41.638Z,102416.31
2022-10-20T09:00:45.630Z,102418.94
2022-10-20T09:03:53.563Z,102405.59
2022-10-20T09:07:00.516Z,102402.03
2022-10-20T09:10:14.932Z,102396.66
2022-10-20T09:13:23.507Z,102401.09
2022-10-20T09:16:40.942Z,102401.09
2022-10-20T09:19:52.842Z,102406.41
2022-10-20T09:22:55.742Z,102397.50
2022-10-20T09:26:00.078Z,102390.41
2022-10-20T09:29:13.411Z,102386.84
2022-10-20T09:35:49.091Z,102377.13
2022-10-20T09:38:52.870Z,102386.91
2022-10-20T09:42:04.780Z,102378.91
2022-10-20T09:45:17.523Z,102380.72
2022-10-20T09:48:26.802Z,102375.41
2022-10-20T09:51:31.793Z,102366.53
2022-10-20T09:54:34.703Z,102366.53
2022-10-20T09:57:38.892Z,102363.88
2022-10-20T10:00:46.189Z,102350.56
2022-10-20T10:03:51.617Z,102344.38
2022-10-20T10:06:54.525Z,102343.47
2022-10-20T10:10:01.302Z,102345.28
2022-10-20T10:13:24.811Z,102331.03
2022-10-20T10:16:29.306Z,102323.94
2022-10-20T10:19:34.719Z,102322.09
2022-10-20T10:22:38.039Z,102308.78
2022-10-20T10:25:41.150Z,102297.25
2022-10-20T10:28:45.520Z,102302.56
2022-10-20T10:31:53.263Z,102296.28
2022-10-20T10:35:20.451Z,102290.94
2022-10-20T10:38:23.514Z,102282.00
2022-10-20T10:41:41.637Z,102282.91
2022-10-20T10:44:56.180Z,102267.81
2022-10-20T10:48:16.247Z,102266.00
2022-10-20T10:51:29.444Z,102258.00
2022-10-20T10:54:44.628Z,102251.78
2022-10-20T10:57:58.213Z,102242.00
2022-10-20T11:01:15.963Z,102234.03
2022-10-20T11:05:04.239Z,102227.81
2022-10-20T11:08:18.957Z,102218.03
2022-10-20T11:11:35.946Z,102213.56
2022-10-20T11:14:49.460Z,102209.13
2022-10-20T11:18:04.837Z,102203.78
2022-10-20T11:21:17.848Z,102195.78
2022-10-20T11:24:36.964Z,102189.59
2022-10-20T11:27:40.358Z,102193.97
2022-10-20T11:30:43.445Z,102191.31
2022-10-20T11:33:52.964Z,102180.66
2022-10-20T11:37:03.491Z,102177.09
2022-10-20T11:40:17.827Z,102162.00
2022-10-20T11:43:26.905Z,102165.53
2022-10-20T11:46:36.076Z,102146.88
2022-10-20T11:49:41.812Z,102138.03
2022-10-20T11:52:58.965Z,102130.91
2022-10-20T11:56:20.631Z,102124.66
2022-10-20T11:59:51.720Z,102117.56
2022-10-20T12:03:21.273Z,102121.06
2022-10-20T12:06:56.765Z,102113.97
2022-10-20T12:10:30.113Z,102105.09
2022-10-20T12:13:42.090Z,102101.53
2022-10-20T12:17:12.178Z,102107.75
2022-10-20T12:20:50.667Z,102089.13
2022-10-20T12:24:03.278Z,102086.47
2022-10-20T12:27:28.730Z,102093.53
2022-10-20T12:30:45.310Z,102097.09
2022-10-20T12:34:03.702Z,102097.09
2022-10-20T12:37:17.548Z,102097.94
2022-10-20T12:40:27.214Z,102095.28
2022-10-20T12:43:37.448Z,102086.38
2022-10-20T12:46:44.701Z,102094.38
2022-10-20T12:49:56.794Z,102092.56
2022-10-20T12:53:11.885Z,102089.00
2022-10-20T12:56:21.979Z,102091.63
2022-10-20T12:59:46.514Z,102085.41
2022-10-20T13:02:53.569Z,102093.41
2022-10-20T13:05:56.484Z,102089.84
2022-10-20T13:09:24.169Z,102085.38
2022-10-20T13:12:30.529Z,102078.25
2022-10-20T13:15:36.195Z,102059.59
2022-10-20T13:18:45.710Z,102056.06
2022-10-20T13:21:49.897Z,102057.88
2022-10-20T13:24:56.643Z,102036.56
2022-10-20T13:28:07.288Z,102037.41
2022-10-20T13:31:21.767Z,102039.25
2022-10-20T13:34:32.605Z,102040.97
2022-10-20T13:37:56.229Z,102032.97
2022-10-20T13:41:05.541Z,102025.91
2022-10-20T13:44:22.440Z,102015.25
2022-10-20T13:47:48.095Z,102007.28
2022-10-20T13:50:57.761Z,102002.84
2022-10-20T13:54:02.766Z,102001.97
2022-10-20T13:57:07.183Z,101999.28
2022-10-20T14:00:21.767Z,101998.41
2022-10-20T14:03:24.618Z,102002.84
2022-10-20T14:06:35.364Z,101994.88
2022-10-20T14:09:40.579Z,101988.63
2022-10-20T14:12:46.556Z,101990.34
2022-10-20T14:15:54.818Z,101979.69
2022-10-20T14:19:02.077Z,101984.13
2022-10-20T14:22:14.206Z,101989.47
2022-10-20T14:25:17.884Z,101989.47
2022-10-20T14:28:22.286Z,101992.97
2022-10-20T14:31:26.637Z,101988.53
2022-10-20T14:34:31.927Z,101975.22
2022-10-20T14:37:39.016Z,101976.13
2022-10-20T14:40:42.480Z,101973.47
2022-10-20T14:43:48.424Z,101971.66
2022-10-20T14:46:53.504Z,101972.53
2022-10-20T14:49:56.818Z,101961.00
2022-10-20T14:53:17.292Z,101953.00
2022-10-20T14:56:25.162Z,101947.66
2022-10-20T14:59:30.843Z,101945.00
2022-10-20T15:02:38.725Z,101960.03
2022-10-20T15:05:44.335Z,101954.72
2022-10-20T15:08:54.821Z,101940.50
2022-10-20T15:11:58.249Z,101944.06
2022-10-20T15:15:06.803Z,101940.50
2022-10-20T15:18:16.674Z,101947.56
2022-10-20T15:21:19.877Z,101952.88
2022-10-20T15:24:22.703Z,101942.22
2022-10-20T15:27:25.893Z,101944.88
2022-10-20T15:30:28.907Z,101925.41
2022-10-20T15:33:33.198Z,101921.84
2022-10-20T15:36:41.749Z,101917.44
2022-10-20T15:39:45.535Z,101917.44
2022-10-20T15:42:48.519Z,101912.09
2022-10-20T15:45:55.601Z,101909.44
2022-10-20T15:48:59.827Z,101893.53
2022-10-20T15:52:02.681Z,101897.97
2022-10-20T15:55:22.593Z,101897.06
2022-10-20T15:58:25.517Z,101893.56
2022-10-20T16:01:29.020Z,101891.81
2022-10-20T16:04:33.306Z,101889.16
2022-10-20T16:07:36.452Z,101885.59
2022-10-20T16:10:41.267Z,101883.00
2022-10-20T16:13:44.147Z,101876.78
2022-10-20T16:16:46.981Z,101874.13
2022-10-20T16:19:51.209Z,101873.28
2022-10-20T16:22:54.132Z,101875.94
2022-10-20T16:25:56.888Z,101868.88
2022-10-20T16:29:00.946Z,101866.16
2022-10-20T16:32:04.303Z,101862.63
2022-10-20T16:35:09.358Z,101859.97
2022-10-20T16:38:12.366Z,101866.19
2022-10-20T16:41:16.505Z,101866.19
2022-10-20T16:44:19.278Z,101872.44
2022-10-20T16:47:22.074Z,101860.91
2022-10-20T16:50:26.188Z,101859.13
2022-10-20T16:53:29.019Z,101862.69
2022-10-20T16:56:31.887Z,101867.13
2022-10-20T16:59:34.665Z,101864.53
2022-10-20T17:02:38.091Z,101860.97
2022-10-20T17:05:42.277Z,101863.59
2022-10-20T17:08:45.067Z,101860.97
2022-10-20T17:11:47.903Z,101868.09
2022-10-20T17:14:50.663Z,101873.41
2022-10-20T17:17:53.433Z,101876.06
2022-10-20T17:20:57.591Z,101859.19
2022-10-20T17:24:00.664Z,101856.59
2022-10-20T17:27:03.527Z,101850.38
2022-10-20T17:30:07.623Z,101853.94
2022-10-20T17:33:11.414Z,101843.31
2022-10-20T17:36:16.323Z,101835.31
2022-10-20T17:39:21.962Z,101830.91
2022-10-20T17:42:24.778Z,101839.81
2022-10-20T17:45:27.564Z,101835.38
2022-10-20T17:48:30.758Z,101827.44
2022-10-20T17:51:35.424Z,101825.69
2022-10-20T17:54:38.155Z,101823.84
2022-10-20T17:57:40.901Z,101807.88
2022-10-20T18:00:55.945Z,101807.88
2022-10-20T18:04:02.553Z,101790.16
2022-10-20T18:07:06.846Z,101785.72
2022-10-20T18:10:10.708Z,101775.09
2022-10-20T18:13:13.529Z,101777.75
2022-10-20T18:16:18.194Z,101779.50
2022-10-20T18:19:21.058Z,101773.38
2022-10-20T18:22:25.225Z,101776.03
2022-10-20T18:25:27.978Z,101763.63
2022-10-20T18:28:30.867Z,101769.88
2022-10-20T18:31:35.044Z,101769.88
2022-10-20T18:34:38.626Z,101777.88
2022-10-20T18:37:44.846Z,101783.19
2022-10-20T18:40:47.628Z,101785.84
2022-10-20T18:43:57.599Z,101784.03
2022-10-20T18:47:01.163Z,101768.94
2022-10-20T18:50:04.047Z,101766.28
2022-10-20T18:53:09.026Z,101753.91
2022-10-20T18:56:14.499Z,101746.75
2022-10-20T18:59:17.910Z,101748.59
2022-10-20T19:02:21.008Z,101754.81
2022-10-20T19:05:23.896Z,101744.16
2022-10-20T19:08:28.097Z,101724.66
2022-10-20T19:11:34.220Z,101718.47
2022-10-20T19:14:37.057Z,101710.50
2022-10-20T19:17:39.903Z,101707.84
2022-10-20T19:20:42.691Z,101708.72
2022-10-20T19:23:49.968Z,101695.41
2022-10-20T19:27:24.626Z,101687.38
2022-10-20T19:30:17.912Z,101676.78
2022-10-20T19:33:20.875Z,101682.13
2022-10-20T19:36:26.771Z,101679.44
2022-10-20T19:39:33.567Z,101682.13
2022-10-20T19:42:36.742Z,101678.56
2022-10-20T19:45:39.858Z,101683.06
2022-10-20T19:48:43.087Z,101685.72
2022-10-20T19:51:45.894Z,101700.81
2022-10-20T19:54:50.158Z,101713.25
2022-10-20T19:57:53.548Z,101715.91
2022-10-20T20:00:59.000Z,101702.59
2022-10-20T20:04:01.997Z,101691.94
2022-10-20T20:07:04.921Z,101683.97
2022-10-20T20:10:10.227Z,101684.84
2022-10-20T20:13:13.049Z,101674.13
2022-10-20T20:16:15.808Z,101677.66
2022-10-20T20:19:18.648Z,101673.22
2022-10-20T20:22:21.428Z,101671.47
2022-10-20T20:25:25.666Z,101674.13
2022-10-20T20:28:28.593Z,101671.47
2022-10-20T20:31:31.848Z,101678.53
2022-10-20T20:34:34.736Z,101674.13
2022-10-20T20:37:37.822Z,101672.34
2022-10-20T20:40:46.485Z,101672.34
2022-10-20T20:43:49.308Z,101666.13
2022-10-20T20:46:52.130Z,101650.16
2022-10-20T20:49:54.877Z,101650.16
2022-10-20T20:52:57.722Z,101639.50
2022-10-20T20:56:03.405Z,101635.94
2022-10-20T20:59:06.228Z,101620.81
2022-10-20T21:02:10.788Z,101627.97
2022-10-20T21:05:14.026Z,101625.16
2022-10-20T21:08:16.781Z,101629.59
2022-10-20T21:11:22.770Z,101626.94
2022-10-20T21:14:25.688Z,101626.94
2022-10-20T21:17:28.499Z,101618.13
2022-10-20T21:20:31.345Z,101617.25
2022-10-20T21:23:34.564Z,101612.81
2022-10-20T21:26:38.940Z,101625.22
2022-10-20T21:29:45.591Z,101626.13
2022-10-20T21:32:49.190Z,101618.22
2022-10-20T21:35:51.962Z,101615.56
2022-10-20T21:38:54.972Z,101620.88
2022-10-20T21:41:59.101Z,101618.22
2022-10-20T21:45:01.946Z,101613.78
2022-10-20T21:48:05.176Z,101611.97
2022-10-20T21:51:09.806Z,101611.16
2022-10-20T21:54:14.459Z,101608.44
2022-10-20T21:57:18.718Z,101611.16
2022-10-20T22:00:23.861Z,101605.84
2022-10-20T22:03:27.439Z,101603.19
2022-10-20T22:06:30.385Z,101611.16
2022-10-20T22:09:33.234Z,101613.84
2022-10-20T22:15:45.151Z,101616.53
2022-10-20T22:18:47.999Z,101614.75
2022-10-20T22:21:52.898Z,101602.38
2022-10-20T22:24:55.713Z,101613.03
2022-10-20T22:27:59.906Z,101607.69
2022-10-20T22:31:02.952Z,101605.88
2022-10-20T22:34:06.741Z,101604.97
2022-10-20T22:37:09.577Z,101603.22
2022-10-20T22:40:13.169Z,101586.41
2022-10-20T22:43:17.306Z,101590.84
2022-10-20T22:46:20.274Z,101586.41
2022-10-20T22:49:23.116Z,101587.38
2022-10-20T22:52:25.899Z,101586.50
2022-10-20T22:55:28.756Z,101584.72
2022-10-20T22:58:32.905Z,101575.84
2022-10-20T23:01:35.742Z,101575.84
2022-10-20T23:04:38.578Z,101569.63
2022-10-20T23:07:41.559Z,101566.97
2022-10-20T23:10:44.353Z,101568.75
2022-10-20T23:13:49.888Z,101565.19
2022-10-20T23:16:52.681Z,101564.25
2022-10-20T23:19:55.667Z,101555.44
2022-10-20T23:22:58.580Z,101553.66
2022-10-20T23:26:03.809Z,101551.06
2022-10-20T23:29:08.964Z,101553.72
2022-10-20T23:32:11.742Z,101553.72
2022-10-20T23:35:14.767Z,101549.31
2022-10-20T23:38:17.528Z,101548.41
2022-10-20T23:41:20.817Z,101550.19
2022-10-20T23:44:25.138Z,101549.31
2022-10-20T23:47:28.057Z,101550.25
2022-10-20T23:50:30.836Z,101532.50
2022-10-20T23:53:34.329Z,101542.28
2022-10-20T23:56:37.109Z,101534.28
2022-10-20T23:59:41.308Z,101540.50
